createdAt,value
2018-12-02T00:00:56.738Z,119.95
2018-12-02T00:03:24.855Z,115.05
2018-12-02T00:05:52.954Z,123.47
2018-12-02T00:08:35.793Z,127.53
2018-12-02T00:11:04.441Z,127.87
2018-12-02T00:13:32.426Z,124.12
2018-12-02T00:16:00.441Z,125.45
2018-12-02T00:18:28.449Z,130.90
2018-12-02T00:20:56.560Z,131.03
2018-12-02T00:23:24.527Z,125.25
2018-12-02T00:25:52.860Z,122.92
2018-12-02T00:28:20.856Z,120.35
2018-12-02T00:30:48.939Z,122.62
2018-12-02T00:33:16.977Z,123.05
2018-12-02T00:35:45.006Z,116.65
2018-12-02T00:38:13.005Z,122.15
2018-12-02T00:40:41.014Z,117.85
2018-12-02T00:43:08.997Z,115.62
2018-12-02T00:45:37.472Z,116.00
2018-12-02T00:48:06.390Z,123.87
2018-12-02T00:50:34.445Z,115.08
2018-12-02T00:53:02.497Z,111.70
2018-12-02T00:55:32.556Z,122.98
2018-12-02T00:58:00.508Z,110.55
2018-12-02T01:00:28.609Z,115.90
2018-12-02T01:02:56.615Z,120.92
2018-12-02T01:05:24.699Z,117.17
2018-12-02T01:07:52.694Z,114.05
2018-12-02T01:10:23.230Z,114.62
2018-12-02T01:12:51.724Z,110.45
2018-12-02T01:15:20.110Z,118.82
2018-12-02T01:17:48.182Z,102.00
2018-12-02T01:20:17.469Z,122.47
2018-12-02T01:22:45.544Z,111.62
2018-12-02T01:25:13.849Z,111.70
2018-12-02T01:27:42.028Z,106.35
2018-12-02T01:30:13.453Z,109.22
2018-12-02T01:32:41.409Z,111.32
2018-12-02T01:35:09.748Z,106.90
2018-12-02T01:37:37.819Z,108.22
2018-12-02T01:40:09.394Z,105.27
2018-12-02T01:42:37.395Z,106.05
2018-12-02T01:45:20.557Z,107.70
2018-12-02T01:47:48.520Z,106.10
2018-12-02T01:50:17.148Z,117.17
2018-12-02T01:52:45.550Z,115.12
2018-12-02T01:55:13.485Z,106.67
2018-12-02T01:57:41.461Z,106.15
2018-12-02T02:00:13.929Z,110.75
2018-12-02T02:02:41.888Z,106.50
2018-12-02T02:05:09.914Z,95.83
2018-12-02T02:07:37.901Z,124.62
2018-12-02T02:10:10.693Z,104.32
2018-12-02T02:12:38.680Z,108.92
2018-12-02T02:15:07.498Z,111.12
2018-12-02T02:17:35.443Z,112.03
2018-12-02T02:20:03.563Z,99.62
2018-12-02T02:22:31.532Z,108.87
2018-12-02T02:24:59.463Z,104.23
2018-12-02T02:27:27.422Z,105.75
2018-12-02T02:29:55.391Z,115.70
2018-12-02T02:32:23.310Z,108.03
2018-12-02T02:34:51.275Z,108.35
2018-12-02T02:37:19.291Z,103.32
2018-12-02T02:39:47.221Z,104.40
2018-12-02T02:42:15.166Z,118.55
2018-12-02T02:44:43.102Z,102.87
2018-12-02T02:47:11.063Z,102.15
2018-12-02T02:49:39.004Z,110.85
2018-12-02T02:52:06.959Z,97.75
2018-12-02T02:54:34.905Z,104.63
2018-12-02T02:57:02.869Z,98.40
2018-12-02T02:59:30.894Z,113.57
2018-12-02T03:01:58.881Z,107.75
2018-12-02T03:04:26.839Z,98.27
2018-12-02T03:06:54.790Z,124.67
2018-12-02T03:09:22.765Z,100.33
2018-12-02T03:11:50.743Z,101.75
2018-12-02T03:14:18.754Z,97.50
2018-12-02T03:16:46.707Z,110.30
2018-12-02T03:19:14.681Z,104.17
2018-12-02T03:21:42.654Z,101.87
2018-12-02T03:24:10.585Z,99.07
2018-12-02T03:26:38.537Z,105.63
2018-12-02T03:29:06.515Z,99.70
2018-12-02T03:31:34.492Z,103.27
2018-12-02T03:34:02.423Z,99.22
2018-12-02T03:36:30.386Z,93.37
2018-12-02T03:38:58.366Z,101.75
2018-12-02T03:41:26.384Z,116.33
2018-12-02T03:43:54.316Z,106.40
2018-12-02T03:46:22.273Z,109.70
2018-12-02T03:48:50.242Z,116.93
2018-12-02T03:51:18.215Z,129.57
2018-12-02T03:53:46.185Z,102.60
2018-12-02T03:56:17.001Z,205.70
2018-12-02T03:58:44.986Z,115.15
2018-12-02T04:01:12.980Z,116.20
2018-12-02T04:03:41.238Z,115.17
2018-12-02T04:06:09.191Z,140.97
2018-12-02T04:08:37.164Z,115.45
2018-12-02T04:11:05.291Z,153.20
2018-12-02T04:13:33.238Z,140.95
2018-12-02T04:16:01.227Z,160.10
2018-12-02T04:18:29.253Z,117.87
2018-12-02T04:20:57.216Z,209.03
2018-12-02T04:23:25.182Z,146.77
2018-12-02T04:25:53.413Z,144.35
2018-12-02T04:28:21.377Z,165.35
2018-12-02T04:30:49.310Z,162.65
2018-12-02T04:33:17.245Z,203.22
2018-12-02T04:35:45.192Z,138.32
2018-12-02T04:38:13.271Z,227.53
2018-12-02T04:40:41.243Z,261.07
2018-12-02T04:43:09.217Z,165.10
2018-12-02T04:45:37.185Z,159.27
2018-12-02T04:48:05.139Z,171.82
2018-12-02T04:50:33.099Z,185.40
2018-12-02T04:53:01.132Z,296.43
2018-12-02T04:55:29.084Z,356.50
2018-12-02T04:57:57.029Z,262.85
2018-12-02T05:00:24.960Z,161.57
2018-12-02T05:02:52.923Z,218.07
2018-12-02T05:05:21.500Z,279.52
2018-12-02T05:07:49.478Z,247.27
2018-12-02T05:10:17.909Z,243.10
2018-12-02T05:12:45.984Z,232.05
2018-12-02T05:15:14.379Z,309.85
2018-12-02T05:17:42.368Z,279.55
2018-12-02T05:20:11.776Z,188.37
2018-12-02T05:22:39.751Z,186.15
2018-12-02T05:25:08.490Z,149.82
2018-12-02T05:27:36.456Z,193.37
2018-12-02T05:30:06.512Z,289.27
2018-12-02T05:32:34.494Z,166.57
2018-12-02T05:35:02.472Z,252.20
2018-12-02T05:37:30.459Z,204.38
2018-12-02T05:39:58.377Z,227.20
2018-12-02T05:42:33.163Z,165.22
2018-12-02T05:45:01.159Z,186.60
2018-12-02T05:47:29.091Z,158.63
2018-12-02T05:49:57.125Z,209.00
2018-12-02T05:52:25.087Z,148.38
2018-12-02T05:54:53.032Z,168.00
2018-12-02T05:57:21.013Z,225.43
2018-12-02T05:59:48.943Z,187.97
2018-12-02T06:02:17.700Z,187.00
2018-12-02T06:04:45.003Z,341.20
2018-12-02T06:07:12.955Z,166.05
2018-12-02T06:09:40.955Z,264.57
2018-12-02T06:12:08.882Z,262.02
2018-12-02T06:14:36.926Z,336.62
2018-12-02T06:17:05.317Z,223.13
2018-12-02T06:19:33.245Z,240.68
2018-12-02T06:22:01.206Z,413.33
2018-12-02T06:24:29.143Z,220.80
2018-12-02T06:26:57.098Z,366.85
2018-12-02T06:29:25.075Z,326.25
2018-12-02T06:31:53.153Z,293.05
2018-12-02T06:34:21.118Z,205.35
2018-12-02T06:36:49.073Z,250.18
2018-12-02T06:39:17.051Z,213.12
2018-12-02T06:41:45.020Z,244.22
2018-12-02T06:44:12.998Z,473.85
2018-12-02T06:46:40.969Z,444.00
2018-12-02T06:49:08.933Z,150.00
2018-12-02T06:51:36.870Z,178.45
2018-12-02T06:54:04.918Z,171.75
2018-12-02T06:56:34.024Z,193.93
2018-12-02T06:59:08.562Z,211.60
2018-12-02T07:01:45.545Z,244.03
2018-12-02T07:04:19.832Z,160.30
2018-12-02T07:06:50.194Z,244.25
2018-12-02T07:09:44.930Z,201.82
2018-12-02T07:12:19.279Z,246.37
2018-12-02T07:14:47.832Z,184.55
2018-12-02T07:20:21.191Z,245.10
2018-12-02T07:22:51.844Z,196.15
2018-12-02T07:25:29.590Z,240.77
2018-12-02T07:30:48.747Z,209.15
2018-12-02T07:33:31.577Z,274.75
2018-12-02T07:36:06.235Z,297.57
2018-12-02T07:38:46.736Z,267.52
2018-12-02T07:41:15.706Z,235.43
2018-12-02T07:43:43.669Z,174.10
2018-12-02T07:46:11.673Z,205.75
2018-12-02T07:48:39.738Z,212.60
2018-12-02T07:51:07.755Z,208.55
2018-12-02T07:53:35.818Z,212.95
2018-12-02T07:56:03.870Z,288.60
2018-12-02T07:58:31.883Z,199.15
2018-12-02T08:01:04.415Z,217.77
2018-12-02T08:03:32.489Z,182.30
2018-12-02T08:06:00.474Z,232.45
2018-12-02T08:08:28.707Z,215.95
2018-12-02T08:10:56.695Z,304.30
2018-12-02T08:13:24.653Z,211.40
2018-12-02T08:15:52.642Z,258.57
2018-12-02T08:18:26.481Z,239.30
2018-12-02T08:20:57.510Z,220.10
2018-12-02T08:23:25.492Z,234.52
2018-12-02T08:26:00.608Z,222.93
2018-12-02T08:28:29.649Z,208.38
2018-12-02T08:30:57.571Z,205.45
2018-12-02T08:33:25.546Z,171.00
2018-12-02T08:35:53.547Z,166.40
2018-12-02T08:38:21.523Z,162.20
2018-12-02T08:40:49.522Z,121.62
2018-12-02T08:43:17.486Z,174.07
2018-12-02T08:45:45.451Z,212.12
2018-12-02T08:48:14.163Z,239.08
2018-12-02T08:50:42.199Z,229.65
2018-12-02T08:53:10.160Z,114.22
2018-12-02T08:55:38.143Z,263.30
2018-12-02T08:58:06.143Z,99.03
2018-12-02T09:00:34.130Z,149.87
2018-12-02T09:03:03.014Z,101.72
2018-12-02T09:05:31.030Z,238.65
2018-12-02T09:07:59.831Z,169.37
2018-12-02T09:10:28.338Z,130.52
2018-12-02T09:12:58.718Z,108.95
2018-12-02T09:15:26.693Z,121.65
2018-12-02T09:17:54.670Z,96.60
2018-12-02T09:20:28.315Z,130.97
2018-12-02T09:26:21.488Z,132.45
2018-12-02T09:28:49.601Z,132.00
2018-12-02T09:31:17.608Z,119.60
2018-12-02T09:33:45.659Z,135.07
2018-12-02T09:41:18.659Z,107.78
2018-12-02T09:43:46.862Z,100.42
2018-12-02T09:46:14.897Z,164.35
2018-12-02T09:48:42.886Z,111.08
2018-12-02T09:51:10.967Z,127.92
2018-12-02T09:53:38.931Z,128.35
2018-12-02T09:56:06.891Z,93.72
2018-12-02T09:58:34.876Z,96.85
2018-12-02T10:01:02.937Z,97.95
2018-12-02T10:03:31.027Z,100.67
2018-12-02T10:05:58.994Z,92.02
2018-12-02T10:08:26.963Z,110.97
2018-12-02T10:10:54.994Z,105.32
2018-12-02T10:13:23.233Z,94.97
2018-12-02T10:15:51.338Z,100.95
2018-12-02T10:18:19.375Z,83.70
2018-12-02T10:20:47.395Z,91.08
2018-12-02T10:23:15.385Z,97.53
2018-12-02T10:25:43.475Z,101.00
2018-12-02T10:28:11.425Z,130.35
2018-12-02T10:30:39.725Z,113.97
2018-12-02T10:33:07.953Z,77.67
2018-12-02T10:35:35.951Z,90.03
2018-12-02T10:38:04.134Z,86.45
2018-12-02T10:40:32.772Z,82.57
2018-12-02T10:43:00.209Z,84.70
2018-12-02T10:45:28.191Z,92.22
2018-12-02T10:47:56.715Z,100.30
2018-12-02T10:50:25.244Z,78.33
2018-12-02T10:52:59.004Z,87.40
2018-12-02T10:55:57.309Z,108.05
2018-12-02T10:58:28.858Z,90.67
2018-12-02T11:01:03.854Z,89.75
2018-12-02T11:03:31.937Z,82.33
2018-12-02T11:05:59.910Z,84.87
2018-12-02T11:08:27.927Z,93.92
2018-12-02T11:10:55.916Z,96.17
2018-12-02T11:13:23.930Z,97.20
2018-12-02T11:15:51.922Z,74.32
2018-12-02T11:18:19.905Z,87.55
2018-12-02T11:20:47.876Z,94.50
2018-12-02T11:23:15.915Z,95.80
2018-12-02T11:25:43.925Z,102.27
2018-12-02T11:28:11.890Z,102.55
2018-12-02T11:30:39.998Z,88.00
2018-12-02T11:33:08.007Z,106.00
2018-12-02T11:35:36.044Z,86.90
2018-12-02T11:38:04.260Z,91.28
2018-12-02T11:40:32.274Z,81.12
2018-12-02T11:43:00.312Z,83.33
2018-12-02T11:45:28.319Z,95.65
2018-12-02T11:47:56.302Z,88.25
2018-12-02T11:50:24.727Z,86.80
2018-12-02T11:52:52.734Z,86.80
2018-12-02T11:55:21.152Z,98.40
2018-12-02T11:57:49.356Z,84.95
2018-12-02T12:00:20.621Z,91.70
2018-12-02T12:02:48.654Z,90.05
2018-12-02T12:05:16.786Z,87.35
2018-12-02T12:07:45.150Z,82.50
2018-12-02T12:10:13.630Z,89.62
2018-12-02T12:12:41.741Z,101.87
2018-12-02T12:15:12.268Z,102.25
2018-12-02T12:17:40.365Z,100.45
2018-12-02T12:20:16.433Z,86.35
2018-12-02T12:22:44.466Z,88.82
2018-12-02T12:25:12.442Z,94.72
2018-12-02T12:27:40.491Z,95.47
2018-12-02T12:30:11.866Z,93.27
2018-12-02T12:32:39.891Z,95.62
2018-12-02T12:35:09.602Z,98.67
2018-12-02T12:37:37.643Z,116.28
2018-12-02T12:40:09.724Z,107.72
2018-12-02T12:42:37.708Z,89.42
2018-12-02T12:45:07.144Z,101.20
2018-12-02T12:47:35.109Z,94.25
2018-12-02T12:50:03.272Z,104.10
2018-12-02T12:52:31.262Z,100.60
2018-12-02T12:54:59.269Z,96.70
2018-12-02T12:57:27.271Z,104.23
2018-12-02T12:59:55.260Z,97.12
2018-12-02T13:02:23.410Z,96.57
2018-12-02T13:04:51.389Z,109.22
2018-12-02T13:07:19.364Z,97.90
2018-12-02T13:09:47.373Z,91.80
2018-12-02T13:12:15.378Z,97.65
2018-12-02T13:14:43.359Z,117.82
2018-12-02T13:17:11.425Z,99.77
2018-12-02T13:19:39.409Z,110.97
2018-12-02T13:22:07.407Z,113.77
2018-12-02T13:24:35.405Z,107.87
2018-12-02T13:27:03.414Z,111.10
2018-12-02T13:29:31.355Z,104.35
2018-12-02T13:31:59.327Z,102.75
2018-12-02T13:34:27.377Z,107.03
2018-12-02T13:36:55.365Z,112.22
2018-12-02T13:39:23.418Z,104.65
2018-12-02T13:41:51.439Z,121.20
2018-12-02T13:44:19.454Z,112.80
2018-12-02T13:46:47.427Z,104.43
2018-12-02T13:49:15.454Z,112.70
2018-12-02T13:51:43.463Z,109.27
2018-12-02T13:54:17.002Z,114.50
2018-12-02T13:56:45.019Z,105.52
2018-12-02T13:59:13.003Z,106.50
2018-12-02T14:01:41.049Z,101.02
2018-12-02T14:04:09.092Z,113.47
2018-12-02T14:06:37.128Z,111.60
2018-12-02T14:09:06.243Z,97.45
2018-12-02T14:11:34.299Z,116.53
2018-12-02T14:14:02.819Z,113.80
2018-12-02T14:16:33.902Z,107.00
2018-12-02T14:19:03.841Z,115.03
2018-12-02T14:21:31.829Z,110.85
2018-12-02T14:23:59.904Z,108.75
2018-12-02T14:26:27.890Z,109.12
2018-12-02T14:28:57.646Z,113.20
2018-12-02T14:31:26.273Z,99.90
2018-12-02T14:33:54.279Z,114.88
2018-12-02T14:36:22.283Z,103.32
2018-12-02T14:38:50.505Z,118.22
2018-12-02T14:41:18.603Z,103.38
2018-12-02T14:43:46.624Z,105.95
2018-12-02T14:46:14.597Z,106.72
2018-12-02T14:48:42.585Z,107.83
2018-12-02T14:51:10.578Z,114.77
2018-12-02T14:53:38.555Z,112.28
2018-12-02T14:56:06.690Z,117.55
2018-12-02T14:58:35.656Z,106.20
2018-12-02T15:01:03.637Z,112.50
2018-12-02T15:03:31.686Z,123.02
2018-12-02T15:05:59.647Z,113.05
2018-12-02T15:08:27.622Z,115.28
2018-12-02T15:10:55.606Z,116.77
2018-12-02T15:13:23.610Z,112.10
2018-12-02T15:15:51.616Z,121.00
2018-12-02T15:18:19.690Z,117.45
2018-12-02T15:20:47.658Z,113.47
2018-12-02T15:23:15.636Z,122.58
2018-12-02T15:25:43.643Z,112.45
2018-12-02T15:28:11.620Z,119.02
2018-12-02T15:30:39.655Z,109.57
2018-12-02T15:33:07.693Z,112.22
2018-12-02T15:35:35.873Z,126.70
2018-12-02T15:38:03.840Z,119.00
2018-12-02T15:40:31.856Z,128.85
2018-12-02T15:42:59.889Z,120.40
2018-12-02T15:45:28.025Z,116.90
2018-12-02T15:47:55.985Z,118.57
2018-12-02T15:50:24.210Z,118.17
2018-12-02T15:52:52.289Z,126.85
2018-12-02T15:55:21.193Z,112.42
2018-12-02T15:57:49.196Z,118.85
2018-12-02T16:00:18.643Z,122.20
2018-12-02T16:02:46.631Z,118.70
2018-12-02T16:05:14.585Z,117.35
2018-12-02T16:07:42.549Z,124.58
2018-12-02T16:10:11.139Z,107.85
2018-12-02T16:12:39.255Z,125.50
2018-12-02T16:15:09.858Z,131.18
2018-12-02T16:17:37.984Z,120.08
2018-12-02T16:20:09.560Z,121.22
2018-12-02T16:22:37.533Z,139.45
2018-12-02T16:25:06.120Z,133.63
2018-12-02T16:27:34.135Z,130.07
2018-12-02T16:30:02.392Z,126.72
2018-12-02T16:32:30.477Z,146.00
2018-12-02T16:34:58.526Z,140.22
2018-12-02T16:37:26.500Z,136.88
2018-12-02T16:39:54.545Z,115.17
2018-12-02T16:42:22.615Z,133.05
2018-12-02T16:44:50.577Z,142.68
2018-12-02T16:47:18.546Z,130.67
2018-12-02T16:49:46.614Z,129.93
2018-12-02T16:52:14.576Z,140.97
2018-12-02T16:54:42.590Z,129.75
2018-12-02T16:57:11.237Z,142.95
2018-12-02T16:59:39.298Z,132.05
2018-12-02T17:02:08.001Z,131.80
2018-12-02T17:04:35.998Z,121.57
2018-12-02T17:07:04.068Z,110.85
2018-12-02T17:09:32.035Z,132.52
2018-12-02T17:12:00.018Z,136.00
2018-12-02T17:14:28.037Z,135.37
2018-12-02T17:16:56.030Z,119.67
2018-12-02T17:19:24.018Z,128.45
2018-12-02T17:21:52.001Z,116.08
2018-12-02T17:24:19.965Z,122.40
2018-12-02T17:26:47.913Z,131.25
2018-12-02T17:29:16.623Z,126.10
2018-12-02T17:31:51.770Z,128.62
2018-12-02T17:34:19.796Z,130.67
2018-12-02T17:36:47.775Z,135.03
2018-12-02T17:39:16.987Z,143.45
2018-12-02T17:41:46.463Z,140.77
2018-12-02T17:44:14.481Z,137.18
2018-12-02T17:46:42.534Z,141.85
2018-12-02T17:49:10.658Z,129.72
2018-12-02T17:51:38.664Z,133.50
2018-12-02T17:56:41.294Z,140.60
2018-12-02T17:59:09.270Z,138.90
2018-12-02T18:01:37.252Z,145.50
2018-12-02T18:04:05.913Z,131.70
2018-12-02T18:06:33.876Z,152.60
2018-12-02T18:09:01.900Z,144.28
2018-12-02T18:11:29.935Z,137.88
2018-12-02T18:13:58.023Z,143.40
2018-12-02T18:16:25.972Z,145.20
2018-12-02T18:18:53.984Z,132.52
2018-12-02T18:21:21.956Z,144.65
2018-12-02T18:23:49.919Z,136.28
2018-12-02T18:26:17.993Z,147.32
2018-12-02T18:28:46.027Z,170.87
2018-12-02T18:31:13.973Z,170.35
2018-12-02T18:33:42.008Z,176.63
2018-12-02T18:36:11.875Z,150.97
2018-12-02T18:38:40.669Z,180.48
2018-12-02T18:41:11.815Z,159.35
2018-12-02T18:43:39.833Z,157.82
2018-12-02T18:46:07.813Z,157.62
2018-12-02T18:48:35.816Z,158.60
2018-12-02T18:51:03.797Z,164.35
2018-12-02T18:53:31.795Z,158.15
2018-12-02T18:55:59.879Z,148.97
2018-12-02T18:58:27.926Z,150.87
2018-12-02T19:00:55.943Z,147.37
2018-12-02T19:03:24.162Z,147.32
2018-12-02T19:05:52.331Z,151.35
2018-12-02T19:08:20.373Z,147.82
2018-12-02T19:10:49.442Z,152.50
2018-12-02T19:13:17.439Z,141.80
2018-12-02T19:15:45.615Z,143.85
2018-12-02T19:18:13.613Z,145.65
2018-12-02T19:20:41.615Z,138.60
2018-12-02T19:23:10.947Z,143.85
2018-12-02T19:25:38.999Z,160.88
2018-12-02T19:28:07.003Z,144.82
2018-12-02T19:30:35.064Z,155.90
2018-12-02T19:33:03.177Z,145.87
2018-12-02T19:35:32.651Z,158.70
2018-12-02T19:38:03.010Z,157.52
2018-12-02T19:40:32.150Z,159.97
2018-12-02T19:43:00.093Z,154.50
2018-12-02T19:45:28.111Z,152.87
2018-12-02T19:47:56.227Z,162.07
2018-12-02T19:50:24.229Z,160.28
2018-12-02T19:52:52.517Z,158.95
2018-12-02T19:55:20.486Z,172.57
2018-12-02T19:57:48.800Z,164.00
2018-12-02T20:00:22.885Z,182.93
2018-12-02T20:02:50.910Z,164.67
2018-12-02T20:05:18.956Z,171.15
2018-12-02T20:07:48.782Z,142.10
2018-12-02T20:10:17.496Z,169.57
2018-12-02T20:12:45.639Z,157.12
2018-12-02T20:15:14.308Z,144.20
2018-12-02T20:17:42.730Z,168.90
2018-12-02T20:20:17.029Z,183.52
2018-12-02T20:22:45.001Z,148.07
2018-12-02T20:25:13.011Z,164.18
2018-12-02T20:27:41.080Z,154.38
2018-12-02T20:30:11.745Z,151.87
2018-12-02T20:32:44.593Z,151.15
2018-12-02T20:35:12.640Z,161.88
2018-12-02T20:37:40.726Z,137.95
2018-12-02T20:40:10.299Z,150.10
2018-12-02T20:42:38.265Z,161.12
2018-12-02T20:45:08.153Z,157.40
2018-12-02T20:47:37.796Z,163.20
2018-12-02T20:50:06.987Z,146.80
2018-12-02T20:52:34.982Z,155.52
2018-12-02T20:55:03.022Z,143.20
2018-12-02T20:57:31.534Z,153.93
2018-12-02T20:59:59.644Z,164.90
2018-12-02T21:02:27.686Z,154.32
2018-12-02T21:04:55.723Z,159.20
2018-12-02T21:07:23.897Z,166.43
2018-12-02T21:09:51.877Z,157.80
2018-12-02T21:12:19.977Z,165.77
2018-12-02T21:14:48.035Z,148.70
2018-12-02T21:17:15.982Z,159.95
2018-12-02T21:19:43.985Z,155.48
2018-12-02T21:22:12.006Z,150.42
2018-12-02T21:24:39.915Z,151.27
2018-12-02T21:27:07.948Z,152.95
2018-12-02T21:29:36.221Z,143.80
2018-12-02T21:32:04.245Z,158.37
2018-12-02T21:34:32.585Z,134.47
2018-12-02T21:37:00.593Z,146.95
2018-12-02T21:39:28.547Z,149.57
2018-12-02T21:41:56.581Z,148.02
2018-12-02T21:44:24.658Z,140.05
2018-12-02T21:46:52.719Z,133.40
2018-12-02T21:49:20.729Z,122.50
2018-12-02T21:51:48.786Z,139.60
2018-12-02T21:54:16.761Z,152.30
2018-12-02T21:56:44.801Z,148.38
2018-12-02T21:59:12.770Z,140.12
2018-12-02T22:01:40.769Z,142.22
2018-12-02T22:04:08.790Z,147.05
2018-12-02T22:06:36.783Z,141.53
2018-12-02T22:09:06.397Z,128.27
2018-12-02T22:11:34.420Z,160.40
2018-12-02T22:14:02.476Z,170.82
2018-12-02T22:16:30.486Z,157.85
2018-12-02T22:18:58.450Z,146.13
2018-12-02T22:21:26.758Z,152.93
2018-12-02T22:23:54.948Z,150.30
2018-12-02T22:26:22.991Z,156.52
2018-12-02T22:28:51.143Z,154.82
2018-12-02T22:31:19.243Z,148.97
2018-12-02T22:33:47.313Z,158.82
2018-12-02T22:36:15.339Z,139.37
2018-12-02T22:38:43.317Z,155.70
2018-12-02T22:41:11.360Z,150.45
2018-12-02T22:43:39.487Z,132.15
2018-12-02T22:46:07.451Z,143.72
2018-12-02T22:48:35.389Z,146.02
2018-12-02T22:51:03.446Z,132.85
2018-12-02T22:53:31.487Z,143.32
2018-12-02T22:55:59.447Z,137.35
2018-12-02T22:58:27.472Z,140.32
2018-12-02T23:01:00.855Z,128.47
2018-12-02T23:03:28.860Z,151.57
2018-12-02T23:05:56.870Z,151.12
2018-12-02T23:08:24.859Z,141.18
2018-12-02T23:10:52.899Z,146.13
2018-12-02T23:13:20.898Z,142.90
2018-12-02T23:15:48.917Z,151.50
2018-12-02T23:18:16.883Z,143.60
2018-12-02T23:20:45.034Z,134.75
2018-12-02T23:23:13.028Z,145.70
2018-12-02T23:25:40.970Z,141.90
2018-12-02T23:28:09.002Z,150.75
2018-12-02T23:30:37.055Z,146.82
2018-12-02T23:33:05.773Z,152.62
2018-12-02T23:35:33.750Z,139.57
2018-12-02T23:38:01.701Z,158.57
2018-12-02T23:40:29.725Z,148.80
2018-12-02T23:42:57.798Z,145.50
2018-12-02T23:45:25.751Z,156.52
2018-12-02T23:47:53.711Z,150.35
2018-12-02T23:50:22.637Z,135.48
2018-12-02T23:52:50.669Z,148.82
2018-12-02T23:55:19.525Z,152.20
2018-12-02T23:57:47.730Z,130.30
